sensor_id;sensor_type;location;lat;lon;timestamp;pressure;altitude;pressure_sealevel;temperature;humidity
79463;BME280;68931;47.286;18.756;2023-05-14T00:00:04;101077.22;;;11.56;82.91
79463;BME280;68931;47.286;18.756;2023-05-14T00:00:35;101075.38;;;11.58;83.03
79463;BME280;68931;47.286;18.756;2023-05-14T00:01:06;101074.47;;;11.59;82.49
79463;BME280;68931;47.286;18.756;2023-05-14T00:01:38;101075.31;;;11.60;82.84
79463;BME280;68931;47.286;18.756;2023-05-14T00:02:09;101066.56;;;11.59;82.68
79463;BME280;68931;47.286;18.756;2023-05-14T00:02:40;101068.34;;;11.59;83.39
79463;BME280;68931;47.286;18.756;2023-05-14T00:03:10;101065.88;;;11.56;82.70
79463;BME280;68931;47.286;18.756;2023-05-14T00:03:44;101043.03;;;11.41;83.10
79463;BME280;68931;47.286;18.756;2023-05-14T00:04:15;101068.44;;;11.57;83.21
79463;BME280;68931;47.286;18.756;2023-05-14T00:04:46;101058.25;;;11.51;83.09
79463;BME280;68931;47.286;18.756;2023-05-14T00:05:16;101067.66;;;11.55;83.35
79463;BME280;68931;47.286;18.756;2023-05-14T00:05:47;101075.38;;;11.58;83.07
79463;BME280;68931;47.286;18.756;2023-05-14T00:06:18;101071.91;;;11.58;83.22
79463;BME280;68931;47.286;18.756;2023-05-14T00:06:51;101065.78;;;11.57;82.93
79463;BME280;68931;47.286;18.756;2023-05-14T00:07:25;101077.94;;;11.60;83.54
79463;BME280;68931;47.286;18.756;2023-05-14T00:08:02;101081.50;;;11.59;83.11
79463;BME280;68931;47.286;18.756;2023-05-14T00:08:33;101064.16;;;11.55;83.07
79463;BME280;68931;47.286;18.756;2023-05-14T00:09:04;101075.31;;;11.60;82.95
79463;BME280;68931;47.286;18.756;2023-05-14T00:09:35;101071.97;;;11.56;82.92
79463;BME280;68931;47.286;18.756;2023-05-14T00:10:06;101077.94;;;11.60;83.35
79463;BME280;68931;47.286;18.756;2023-05-14T00:10:37;101074.75;;;11.53;83.39
79463;BME280;68931;47.286;18.756;2023-05-14T00:11:08;101075.47;;;11.57;83.44
79463;BME280;68931;47.286;18.756;2023-05-14T00:11:38;101071.91;;;11.58;83.14
79463;BME280;68931;47.286;18.756;2023-05-14T00:12:15;101071.06;;;11.57;82.89
79463;BME280;68931;47.286;18.756;2023-05-14T00:12:46;101070.19;;;11.57;83.54
79463;BME280;68931;47.286;18.756;2023-05-14T00:13:16;101065.88;;;11.56;83.36
79463;BME280;68931;47.286;18.756;2023-05-14T00:13:50;101067.72;;;11.54;83.48
79463;BME280;68931;47.286;18.756;2023-05-14T00:14:21;101064.94;;;11.57;82.72
79463;BME280;68931;47.286;18.756;2023-05-14T00:14:52;101070.06;;;11.60;82.75
79463;BME280;68931;47.286;18.756;2023-05-14T00:15:23;101062.47;;;11.54;83.12
79463;BME280;68931;47.286;18.756;2023-05-14T00:15:53;101067.72;;;11.54;83.02
79463;BME280;68931;47.286;18.756;2023-05-14T00:16:27;101067.66;;;11.55;83.26
79463;BME280;68931;47.286;18.756;2023-05-14T00:16:58;101056.63;;;11.49;83.56
79463;BME280;68931;47.286;18.756;2023-05-14T00:17:29;101064.94;;;11.57;82.74
79463;BME280;68931;47.286;18.756;2023-05-14T00:18:00;101065.28;;;11.51;83.43
79463;BME280;68931;47.286;18.756;2023-05-14T00:18:30;101055.75;;;11.48;83.16
79463;BME280;68931;47.286;18.756;2023-05-14T00:19:04;101064.09;;;11.56;83.45
79463;BME280;68931;47.286;18.756;2023-05-14T00:19:34;101072.69;;;11.60;82.67
79463;BME280;68931;47.286;18.756;2023-05-14T00:20:05;101060.75;;;11.53;82.68
79463;BME280;68931;47.286;18.756;2023-05-14T00:20:36;101065.66;;;11.60;83.22
79463;BME280;68931;47.286;18.756;2023-05-14T00:21:07;101065.53;;;11.62;83.06
79463;BME280;68931;47.286;18.756;2023-05-14T00:21:38;101058.13;;;11.53;83.31
79463;BME280;68931;47.286;18.756;2023-05-14T00:22:09;101060.38;;;11.60;83.10
79463;BME280;68931;47.286;18.756;2023-05-14T00:22:42;101057.13;;;11.55;82.81
79463;BME280;68931;47.286;18.756;2023-05-14T00:23:15;101061.41;;;11.58;83.24
79463;BME280;68931;47.286;18.756;2023-05-14T00:23:46;101059.69;;;11.57;83.09
79463;BME280;68931;47.286;18.756;2023-05-14T00:24:17;101059.69;;;11.57;83.04
79463;BME280;68931;47.286;18.756;2023-05-14T00:24:48;101051.28;;;11.50;83.13
79463;BME280;68931;47.286;18.756;2023-05-14T00:25:19;101033.53;;;11.38;83.00
79463;BME280;68931;47.286;18.756;2023-05-14T00:25:49;101055.13;;;11.60;82.94
79463;BME280;68931;47.286;18.756;2023-05-14T00:26:20;101053.59;;;11.56;82.71
79463;BME280;68931;47.286;18.756;2023-05-14T00:26:56;101045.19;;;11.50;82.44
79463;BME280;68931;47.286;18.756;2023-05-14T00:27:29;101057.06;;;11.57;82.89
79463;BME280;68931;47.286;18.756;2023-05-14T00:28:00;101058.00;;;11.56;82.87
79463;BME280;68931;47.286;18.756;2023-05-14T00:28:31;101044.16;;;11.52;83.44
79463;BME280;68931;47.286;18.756;2023-05-14T00:29:02;101053.59;;;11.56;83.25
79463;BME280;68931;47.286;18.756;2023-05-14T00:29:32;101059.53;;;11.60;82.77
79463;BME280;68931;47.286;18.756;2023-05-14T00:30:05;101056.38;;;11.53;83.24
79463;BME280;68931;47.286;18.756;2023-05-14T00:30:36;101047.56;;;11.54;82.83
79463;BME280;68931;47.286;18.756;2023-05-14T00:31:12;101050.19;;;11.54;83.23
79463;BME280;68931;47.286;18.756;2023-05-14T00:31:46;101037.53;;;11.45;82.80
79463;BME280;68931;47.286;18.756;2023-05-14T00:32:17;101044.16;;;11.52;83.15
79463;BME280;68931;47.286;18.756;2023-05-14T00:32:47;101053.50;;;11.58;83.46
79463;BME280;68931;47.286;18.756;2023-05-14T00:33:18;101052.59;;;11.59;82.94
79463;BME280;68931;47.286;18.756;2023-05-14T00:33:49;101049.19;;;11.57;83.20
79463;BME280;68931;47.286;18.756;2023-05-14T00:34:19;101034.75;;;11.48;82.98
79463;BME280;68931;47.286;18.756;2023-05-14T00:34:50;101051.03;;;11.55;82.82
79463;BME280;68931;47.286;18.756;2023-05-14T00:35:21;101047.63;;;11.53;83.20
79463;BME280;68931;47.286;18.756;2023-05-14T00:35:52;101047.81;;;11.50;83.53
79463;BME280;68931;47.286;18.756;2023-05-14T00:36:23;101036.66;;;11.45;83.66
79463;BME280;68931;47.286;18.756;2023-05-14T00:36:53;101041.78;;;11.48;82.85
79463;BME280;68931;47.286;18.756;2023-05-14T00:37:24;101041.94;;;11.45;83.13
79463;BME280;68931;47.286;18.756;2023-05-14T00:37:55;101043.47;;;11.49;83.29
79463;BME280;68931;47.286;18.756;2023-05-14T00:38:28;101046.19;;;11.47;83.08
79463;BME280;68931;47.286;18.756;2023-05-14T00:38:59;101041.63;;;11.51;82.96
79463;BME280;68931;47.286;18.756;2023-05-14T00:39:29;101044.25;;;11.51;83.05
79463;BME280;68931;47.286;18.756;2023-05-14T00:40:03;101045.59;;;11.42;83.37
79463;BME280;68931;47.286;18.756;2023-05-14T00:40:36;101042.97;;;11.42;83.69
79463;BME280;68931;47.286;18.756;2023-05-14T00:41:07;101016.38;;;11.31;82.95
79463;BME280;68931;47.286;18.756;2023-05-14T00:41:37;101030.75;;;11.41;83.16
79463;BME280;68931;47.286;18.756;2023-05-14T00:42:08;101036.66;;;11.45;83.64
79463;BME280;68931;47.286;18.756;2023-05-14T00:42:39;101041.25;;;11.41;83.74
79463;BME280;68931;47.286;18.756;2023-05-14T00:43:10;101037.69;;;11.42;83.48
79463;BME280;68931;47.286;18.756;2023-05-14T00:43:41;101043.81;;;11.43;83.40
79463;BME280;68931;47.286;18.756;2023-05-14T00:44:12;101043.19;;;11.38;83.87
79463;BME280;68931;47.286;18.756;2023-05-14T00:44:45;101030.38;;;11.31;83.93
79463;BME280;68931;47.286;18.756;2023-05-14T00:45:19;101038.78;;;11.38;83.68
79463;BME280;68931;47.286;18.756;2023-05-14T00:45:52;101035.16;;;11.41;83.42
79463;BME280;68931;47.286;18.756;2023-05-14T00:46:23;101030.03;;;11.38;83.33
79463;BME280;68931;47.286;18.756;2023-05-14T00:46:54;101035.06;;;11.42;83.79
79463;BME280;68931;47.286;18.756;2023-05-14T00:47:25;101029.13;;;11.39;83.90
79463;BME280;68931;47.286;18.756;2023-05-14T00:47:56;101028.28;;;11.38;83.42
79463;BME280;68931;47.286;18.756;2023-05-14T00:48:27;101026.41;;;11.40;83.53
79463;BME280;68931;47.286;18.756;2023-05-14T00:48:58;101029.97;;;11.39;83.36
79463;BME280;68931;47.286;18.756;2023-05-14T00:49:31;101019.69;;;11.35;83.43
79463;BME280;68931;47.286;18.756;2023-05-14T00:50:06;101029.91;;;11.41;83.81
79463;BME280;68931;47.286;18.756;2023-05-14T00:50:37;101017.91;;;11.35;83.50
79463;BME280;68931;47.286;18.756;2023-05-14T00:51:08;101032.66;;;11.38;83.27
79463;BME280;68931;47.286;18.756;2023-05-14T00:51:39;101030.97;;;11.37;83.57
79463;BME280;68931;47.286;18.756;2023-05-14T00:52:11;101030.91;;;11.38;83.46
79463;BME280;68931;47.286;18.756;2023-05-14T00:52:42;101025.78;;;11.35;83.67
79463;BME280;68931;47.286;18.756;2023-05-14T00:53:13;101028.13;;;11.41;83.63
79463;BME280;68931;47.286;18.756;2023-05-14T00:53:45;101024.66;;;11.41;83.78
79463;BME280;68931;47.286;18.756;2023-05-14T00:54:16;101036.84;;;11.42;83.90
79463;BME280;68931;47.286;18.756;2023-05-14T00:54:47;101033.53;;;11.38;83.60
79463;BME280;68931;47.286;18.756;2023-05-14T00:55:21;101025.91;;;11.34;83.29
79463;BME280;68931;47.286;18.756;2023-05-14T00:55:52;101027.41;;;11.38;82.93
79463;BME280;68931;47.286;18.756;2023-05-14T00:56:23;101032.53;;;11.41;83.23
79463;BME280;68931;47.286;18.756;2023-05-14T00:56:55;101024.78;;;11.38;83.55
79463;BME280;68931;47.286;18.756;2023-05-14T00:57:25;101019.53;;;11.38;84.05
79463;BME280;68931;47.286;18.756;2023-05-14T00:57:57;101032.53;;;11.41;83.44
79463;BME280;68931;47.286;18.756;2023-05-14T00:58:28;101000.00;;;11.26;83.13
79463;BME280;68931;47.286;18.756;2023-05-14T00:58:59;101029.72;;;11.44;83.48
79463;BME280;68931;47.286;18.756;2023-05-14T00:59:30;101021.16;;;11.40;83.25
79463;BME280;68931;47.286;18.756;2023-05-14T01:00:04;101023.78;;;11.40;83.78
79463;BME280;68931;47.286;18.756;2023-05-14T01:00:37;101022.88;;;11.41;82.87
79463;BME280;68931;47.286;18.756;2023-05-14T01:01:08;101023.78;;;11.40;83.35
79463;BME280;68931;47.286;18.756;2023-05-14T01:01:39;101018.28;;;11.45;82.89
79463;BME280;68931;47.286;18.756;2023-05-14T01:02:10;101000.56;;;11.32;83.61
79463;BME280;68931;47.286;18.756;2023-05-14T01:02:40;101020.31;;;11.40;82.95
79463;BME280;68931;47.286;18.756;2023-05-14T01:03:11;101022.00;;;11.41;83.68
79463;BME280;68931;47.286;18.756;2023-05-14T01:03:42;101013.34;;;11.39;83.25
79463;BME280;68931;47.286;18.756;2023-05-14T01:04:16;101021.09;;;11.42;83.54
79463;BME280;68931;47.286;18.756;2023-05-14T01:04:48;101001.63;;;11.28;83.11
79463;BME280;68931;47.286;18.756;2023-05-14T01:05:19;101018.88;;;11.34;83.21
79463;BME280;68931;47.286;18.756;2023-05-14T01:09:27;101019.69;;;11.35;83.39
79463;BME280;68931;47.286;18.756;2023-05-14T01:10:10;101017.06;;;11.35;82.84
79463;BME280;68931;47.286;18.756;2023-05-14T01:10:51;100980.03;;;11.23;82.94
79463;BME280;68931;47.286;18.756;2023-05-14T01:11:35;101019.63;;;11.36;82.92
79463;BME280;68931;47.286;18.756;2023-05-14T01:12:37;101019.53;;;11.38;83.32
79463;BME280;68931;47.286;18.756;2023-05-14T01:13:45;100992.75;;;11.31;83.04
79463;BME280;68931;47.286;18.756;2023-05-14T01:14:31;101010.13;;;11.34;83.28
79463;BME280;68931;47.286;18.756;2023-05-14T01:15:14;101001.31;;;11.35;82.93
79463;BME280;68931;47.286;18.756;2023-05-14T01:15:55;101011.22;;;11.29;83.23
79463;BME280;68931;47.286;18.756;2023-05-14T01:16:28;101012.00;;;11.31;83.23
79463;BME280;68931;47.286;18.756;2023-05-14T01:17:03;101015.28;;;11.35;83.04
79463;BME280;68931;47.286;18.756;2023-05-14T01:18:03;101010.88;;;11.36;83.32
79463;BME280;68931;47.286;18.756;2023-05-14T01:18:35;101003.84;;;11.36;83.12
79463;BME280;68931;47.286;18.756;2023-05-14T01:19:09;101005.81;;;11.32;83.02
79463;BME280;68931;47.286;18.756;2023-05-14T01:19:49;100983.81;;;11.18;82.84
79463;BME280;68931;47.286;18.756;2023-05-14T01:20:21;101005.03;;;11.30;83.34
79463;BME280;68931;47.286;18.756;2023-05-14T01:20:53;101007.59;;;11.32;82.77
79463;BME280;68931;47.286;18.756;2023-05-14T01:22:05;101011.06;;;11.32;82.94
79463;BME280;68931;47.286;18.756;2023-05-14T01:22:36;101004.09;;;11.31;83.03
79463;BME280;68931;47.286;18.756;2023-05-14T01:23:07;101008.50;;;11.31;82.85
79463;BME280;68931;47.286;18.756;2023-05-14T01:23:38;100997.22;;;11.29;82.84
79463;BME280;68931;47.286;18.756;2023-05-14T01:24:08;101003.47;;;11.26;83.03
79463;BME280;68931;47.286;18.756;2023-05-14T01:24:39;101004.09;;;11.31;82.75
79463;BME280;68931;47.286;18.756;2023-05-14T01:25:10;101003.19;;;11.32;82.97
79463;BME280;68931;47.286;18.756;2023-05-14T01:25:41;100998.78;;;11.33;82.73
79463;BME280;68931;47.286;18.756;2023-05-14T01:26:11;100997.75;;;11.36;82.89
79463;BME280;68931;47.286;18.756;2023-05-14T01:26:45;100983.94;;;11.32;83.03
79463;BME280;68931;47.286;18.756;2023-05-14T01:27:33;100995.03;;;11.37;83.33
79463;BME280;68931;47.286;18.756;2023-05-14T01:28:22;100985.53;;;11.35;82.97
79463;BME280;68931;47.286;18.756;2023-05-14T01:29:18;100959.09;;;11.22;82.95
79463;BME280;68931;47.286;18.756;2023-05-14T01:30:28;100986.31;;;11.37;82.55
79463;BME280;68931;47.286;18.756;2023-05-14T01:31:13;100985.47;;;11.36;82.99
79463;BME280;68931;47.286;18.756;2023-05-14T01:31:49;100981.97;;;11.36;82.65
79463;BME280;68931;47.286;18.756;2023-05-14T01:32:27;100981.41;;;11.30;82.52
79463;BME280;68931;47.286;18.756;2023-05-14T01:33:02;100977.31;;;11.25;82.43
79463;BME280;68931;47.286;18.756;2023-05-14T01:33:36;100983.94;;;11.32;82.65
79463;BME280;68931;47.286;18.756;2023-05-14T01:34:10;100978.00;;;11.28;82.76
79463;BME280;68931;47.286;18.756;2023-05-14T01:34:44;100986.50;;;11.34;82.75
79463;BME280;68931;47.286;18.756;2023-05-14T01:35:17;100985.53;;;11.35;83.25
79463;BME280;68931;47.286;18.756;2023-05-14T01:35:48;100971.66;;;11.32;83.01
79463;BME280;68931;47.286;18.756;2023-05-14T01:36:21;100980.13;;;11.38;82.22
79463;BME280;68931;47.286;18.756;2023-05-14T01:36:53;100977.00;;;11.31;82.48
79463;BME280;68931;47.286;18.756;2023-05-14T01:37:26;100975.22;;;11.31;82.52
79463;BME280;68931;47.286;18.756;2023-05-14T01:38:01;100983.69;;;11.37;82.69
79463;BME280;68931;47.286;18.756;2023-05-14T01:38:34;100971.59;;;11.34;83.29
79463;BME280;68931;47.286;18.756;2023-05-14T01:39:06;100971.81;;;11.29;82.18
79463;BME280;68931;47.286;18.756;2023-05-14T01:39:41;100974.22;;;11.34;82.00
79463;BME280;68931;47.286;18.756;2023-05-14T01:40:16;100974.09;;;11.36;82.75
79463;BME280;68931;47.286;18.756;2023-05-14T01:40:49;100972.59;;;11.31;82.38
79463;BME280;68931;47.286;18.756;2023-05-14T01:41:23;100977.59;;;11.36;81.98
79463;BME280;68931;47.286;18.756;2023-05-14T01:41:55;100965.56;;;11.32;82.14
79463;BME280;68931;47.286;18.756;2023-05-14T01:42:27;100980.28;;;11.35;82.05
79463;BME280;68931;47.286;18.756;2023-05-14T01:42:59;100972.25;;;11.38;81.83
79463;BME280;68931;47.286;18.756;2023-05-14T01:43:31;100972.41;;;11.35;82.16
79463;BME280;68931;47.286;18.756;2023-05-14T01:44:02;100967.91;;;11.37;82.28
79463;BME280;68931;47.286;18.756;2023-05-14T01:44:36;100967.25;;;11.33;82.38
79463;BME280;68931;47.286;18.756;2023-05-14T01:45:07;100968.78;;;11.37;82.13
79463;BME280;68931;47.286;18.756;2023-05-14T01:45:38;100968.00;;;11.35;82.54
79463;BME280;68931;47.286;18.756;2023-05-14T01:46:09;100960.38;;;11.30;82.16
79463;BME280;68931;47.286;18.756;2023-05-14T01:46:40;100972.41;;;11.35;82.44
79463;BME280;68931;47.286;18.756;2023-05-14T01:47:10;100974.28;;;11.32;82.29
79463;BME280;68931;47.286;18.756;2023-05-14T01:47:41;100976.72;;;11.36;82.31
79463;BME280;68931;47.286;18.756;2023-05-14T01:48:12;100976.06;;;11.32;82.28
79463;BME280;68931;47.286;18.756;2023-05-14T01:48:48;100975.81;;;11.37;82.27
79463;BME280;68931;47.286;18.756;2023-05-14T01:49:18;100977.50;;;11.38;81.28
79463;BME280;68931;47.286;18.756;2023-05-14T01:49:52;100971.88;;;11.28;81.44
79463;BME280;68931;47.286;18.756;2023-05-14T01:50:29;100963.22;;;11.26;82.82
79463;BME280;68931;47.286;18.756;2023-05-14T01:50:59;100970.72;;;11.34;81.78
79463;BME280;68931;47.286;18.756;2023-05-14T01:51:31;100984.53;;;11.37;81.88
79463;BME280;68931;47.286;18.756;2023-05-14T01:52:02;100952.06;;;11.22;81.78
79463;BME280;68931;47.286;18.756;2023-05-14T01:52:35;100980.91;;;11.40;82.06
79463;BME280;68931;47.286;18.756;2023-05-14T01:53:08;100977.44;;;11.39;82.30
79463;BME280;68931;47.286;18.756;2023-05-14T01:53:39;100974.94;;;11.36;81.72
79463;BME280;68931;47.286;18.756;2023-05-14T01:54:10;100941.69;;;11.19;81.66
79463;BME280;68931;47.286;18.756;2023-05-14T01:54:41;100977.66;;;11.35;82.15
79463;BME280;68931;47.286;18.756;2023-05-14T01:55:11;100978.44;;;11.37;81.50
79463;BME280;68931;47.286;18.756;2023-05-14T01:55:45;100971.47;;;11.36;81.00
79463;BME280;68931;47.286;18.756;2023-05-14T01:56:20;100972.59;;;11.31;81.26
79463;BME280;68931;47.286;18.756;2023-05-14T01:56:56;100978.44;;;11.37;81.55
79463;BME280;68931;47.286;18.756;2023-05-14T01:57:26;100970.72;;;11.34;81.60
79463;BME280;68931;47.286;18.756;2023-05-14T01:57:57;100974.94;;;11.36;82.41
79463;BME280;68931;47.286;18.756;2023-05-14T01:58:28;100971.47;;;11.36;81.27
79463;BME280;68931;47.286;18.756;2023-05-14T01:59:02;100967.34;;;11.31;81.64
79463;BME280;68931;47.286;18.756;2023-05-14T01:59:32;100975.88;;;11.35;81.09
79463;BME280;68931;47.286;18.756;2023-05-14T02:00:06;100969.09;;;11.31;81.41
79463;BME280;68931;47.286;18.756;2023-05-14T02:00:40;100973.38;;;11.34;81.64
79463;BME280;68931;47.286;18.756;2023-05-14T02:01:10;100966.56;;;11.29;81.95
79463;BME280;68931;47.286;18.756;2023-05-14T02:01:41;100982.91;;;11.35;81.19
79463;BME280;68931;47.286;18.756;2023-05-14T02:02:11;100961.78;;;11.20;81.60
79463;BME280;68931;47.286;18.756;2023-05-14T02:02:42;100983.00;;;11.33;81.10
79463;BME280;68931;47.286;18.756;2023-05-14T02:03:13;100975.22;;;11.31;81.25
79463;BME280;68931;47.286;18.756;2023-05-14T02:03:44;100977.91;;;11.30;81.34
79463;BME280;68931;47.286;18.756;2023-05-14T02:04:15;100978.63;;;11.34;81.90
79463;BME280;68931;47.286;18.756;2023-05-14T02:04:49;100981.41;;;11.30;81.87
79463;BME280;68931;47.286;18.756;2023-05-14T02:05:19;100977.13;;;11.28;81.89
79463;BME280;68931;47.286;18.756;2023-05-14T02:05:50;100973.84;;;11.24;81.38
79463;BME280;68931;47.286;18.756;2023-05-14T02:06:21;100990.13;;;11.31;82.66
79463;BME280;68931;47.286;18.756;2023-05-14T02:06:52;100980.69;;;11.27;81.59
79463;BME280;68931;47.286;18.756;2023-05-14T02:07:23;100978.00;;;11.28;81.57
79463;BME280;68931;47.286;18.756;2023-05-14T02:07:53;100988.28;;;11.33;82.07
79463;BME280;68931;47.286;18.756;2023-05-14T02:08:24;100970.28;;;11.25;81.99
79463;BME280;68931;47.286;18.756;2023-05-14T02:08:57;100984.25;;;11.26;81.81
79463;BME280;68931;47.286;18.756;2023-05-14T02:09:28;100980.53;;;11.30;81.63
79463;BME280;68931;47.286;18.756;2023-05-14T02:10:00;100976.91;;;11.32;81.77
79463;BME280;68931;47.286;18.756;2023-05-14T02:10:30;100973.50;;;11.30;81.47
79463;BME280;68931;47.286;18.756;2023-05-14T02:11:01;100976.13;;;11.30;81.75
79463;BME280;68931;47.286;18.756;2023-05-14T02:11:32;100985.53;;;11.35;82.34
79463;BME280;68931;47.286;18.756;2023-05-14T02:12:03;100983.16;;;11.30;81.03
79463;BME280;68931;47.286;18.756;2023-05-14T02:12:33;100984.72;;;11.34;82.23
79463;BME280;68931;47.286;18.756;2023-05-14T02:13:04;100969.44;;;11.25;81.72
79463;BME280;68931;47.286;18.756;2023-05-14T02:13:35;100976.28;;;11.27;81.64
79463;BME280;68931;47.286;18.756;2023-05-14T02:14:06;100971.03;;;11.27;81.56
79463;BME280;68931;47.286;18.756;2023-05-14T02:14:37;100978.84;;;11.29;82.11
79463;BME280;68931;47.286;18.756;2023-05-14T02:15:08;100975.63;;;11.24;81.93
79463;BME280;68931;47.286;18.756;2023-05-14T02:15:43;100981.41;;;11.30;81.94
79463;BME280;68931;47.286;18.756;2023-05-14T02:16:13;100973.84;;;11.24;81.62
79463;BME280;68931;47.286;18.756;2023-05-14T02:16:44;100979.78;;;11.28;81.79
79463;BME280;68931;47.286;18.756;2023-05-14T02:17:14;100973.91;;;11.23;81.59
79463;BME280;68931;47.286;18.756;2023-05-14T02:17:47;100976.53;;;11.23;81.90
79463;BME280;68931;47.286;18.756;2023-05-14T02:18:20;100981.53;;;11.27;81.57
79463;BME280;68931;47.286;18.756;2023-05-14T02:18:51;100984.16;;;11.27;81.89
79463;BME280;68931;47.286;18.756;2023-05-14T02:19:21;100979.94;;;11.25;81.85
79463;BME280;68931;47.286;18.756;2023-05-14T02:19:52;100965.97;;;11.24;81.30
79463;BME280;68931;47.286;18.756;2023-05-14T02:20:23;100968.75;;;11.21;81.77
79463;BME280;68931;47.286;18.756;2023-05-14T02:20:56;100937.19;;;11.06;81.76
79463;BME280;68931;47.286;18.756;2023-05-14T02:21:27;100967.75;;;11.24;81.53
79463;BME280;68931;47.286;18.756;2023-05-14T02:21:58;100967.47;;;11.28;82.00
79463;BME280;68931;47.286;18.756;2023-05-14T02:22:29;100963.34;;;11.24;81.89
79463;BME280;68931;47.286;18.756;2023-05-14T02:23:00;100964.94;;;11.27;82.13
79463;BME280;68931;47.286;18.756;2023-05-14T02:23:34;100962.41;;;11.25;81.58
79463;BME280;68931;47.286;18.756;2023-05-14T02:24:04;100968.34;;;11.29;82.30
79463;BME280;68931;47.286;18.756;2023-05-14T02:24:35;100964.72;;;11.31;82.02
79463;BME280;68931;47.286;18.756;2023-05-14T02:25:07;100968.09;;;11.34;81.88
79463;BME280;68931;47.286;18.756;2023-05-14T02:25:40;100950.28;;;11.23;81.52
79463;BME280;68931;47.286;18.756;2023-05-14T02:26:11;100965.84;;;11.26;81.41
79463;BME280;68931;47.286;18.756;2023-05-14T02:26:42;100956.38;;;11.23;81.78
79463;BME280;68931;47.286;18.756;2023-05-14T02:27:15;100937.84;;;11.09;82.66
79463;BME280;68931;47.286;18.756;2023-05-14T02:27:46;100975.53;;;11.25;82.00
79463;BME280;68931;47.286;18.756;2023-05-14T02:28:17;100968.59;;;11.24;82.09
79463;BME280;68931;47.286;18.756;2023-05-14T02:28:48;100954.91;;;11.18;82.50
79463;BME280;68931;47.286;18.756;2023-05-14T02:29:18;100958.38;;;11.18;82.50
79463;BME280;68931;47.286;18.756;2023-05-14T02:29:50;100959.22;;;11.19;82.38
79463;BME280;68931;47.286;18.756;2023-05-14T02:30:21;100953.31;;;11.15;82.98
79463;BME280;68931;47.286;18.756;2023-05-14T02:31:01;100965.19;;;11.22;82.18
79463;BME280;68931;47.286;18.756;2023-05-14T02:31:31;100949.75;;;11.16;82.70
79463;BME280;68931;47.286;18.756;2023-05-14T02:32:02;100961.13;;;11.17;82.17
79463;BME280;68931;47.286;18.756;2023-05-14T02:32:33;100955.31;;;11.10;82.48
79463;BME280;68931;47.286;18.756;2023-05-14T02:33:04;100965.53;;;11.16;82.04
79463;BME280;68931;47.286;18.756;2023-05-14T02:33:34;100961.28;;;11.14;82.11
79463;BME280;68931;47.286;18.756;2023-05-14T02:34:05;100951.75;;;11.11;82.62
79463;BME280;68931;47.286;18.756;2023-05-14T02:34:38;100963.91;;;11.14;82.82
79463;BME280;68931;47.286;18.756;2023-05-14T02:35:09;100962.91;;;11.16;82.91
79463;BME280;68931;47.286;18.756;2023-05-14T02:35:40;100949.06;;;11.13;82.67
79463;BME280;68931;47.286;18.756;2023-05-14T02:36:11;100950.69;;;11.15;83.23
79463;BME280;68931;47.286;18.756;2023-05-14T02:36:41;100958.78;;;11.11;82.00
79463;BME280;68931;47.286;18.756;2023-05-14T02:37:12;100939.13;;;11.02;82.41
79463;BME280;68931;47.286;18.756;2023-05-14T02:37:43;100944.03;;;11.08;82.46
79463;BME280;68931;47.286;18.756;2023-05-14T02:38:14;100955.09;;;11.15;82.30
79463;BME280;68931;47.286;18.756;2023-05-14T02:38:44;100956.78;;;11.16;82.91
79463;BME280;68931;47.286;18.756;2023-05-14T02:39:15;100952.47;;;11.15;82.45
79463;BME280;68931;47.286;18.756;2023-05-14T02:39:48;100955.88;;;11.17;82.41
79463;BME280;68931;47.286;18.756;2023-05-14T02:40:19;100956.94;;;11.13;82.49
79463;BME280;68931;47.286;18.756;2023-05-14T02:40:52;100955.16;;;11.13;82.50
79463;BME280;68931;47.286;18.756;2023-05-14T02:41:23;100959.56;;;11.13;82.32
79463;BME280;68931;47.286;18.756;2023-05-14T02:41:54;100952.09;;;11.05;82.62
79463;BME280;68931;47.286;18.756;2023-05-14T02:42:25;100951.00;;;11.09;82.23
79463;BME280;68931;47.286;18.756;2023-05-14T02:42:56;100953.63;;;11.09;82.24
79463;BME280;68931;47.286;18.756;2023-05-14T02:43:26;100945.66;;;11.11;82.74
79463;BME280;68931;47.286;18.756;2023-05-14T02:43:57;100954.38;;;11.11;82.82
79463;BME280;68931;47.286;18.756;2023-05-14T02:44:28;100958.72;;;11.12;82.75
79463;BME280;68931;47.286;18.756;2023-05-14T02:45:01;100959.63;;;11.11;81.87
79463;BME280;68931;47.286;18.756;2023-05-14T02:45:31;100958.88;;;11.09;82.26
79463;BME280;68931;47.286;18.756;2023-05-14T02:46:02;100965.03;;;11.08;82.46
79463;BME280;68931;47.286;18.756;2023-05-14T02:46:33;100957.09;;;11.10;82.82
79463;BME280;68931;47.286;18.756;2023-05-14T02:47:04;100959.03;;;11.06;82.65
79463;BME280;68931;47.286;18.756;2023-05-14T02:47:41;100958.88;;;11.09;82.80
79463;BME280;68931;47.286;18.756;2023-05-14T02:48:13;100959.91;;;11.07;82.24
79463;BME280;68931;47.286;18.756;2023-05-14T02:48:43;100959.72;;;11.10;82.68
79463;BME280;68931;47.286;18.756;2023-05-14T02:49:14;100952.94;;;11.06;82.31
79463;BME280;68931;47.286;18.756;2023-05-14T02:49:45;100963.38;;;11.07;82.45
79463;BME280;68931;47.286;18.756;2023-05-14T02:50:15;100967.59;;;11.10;82.39
79463;BME280;68931;47.286;18.756;2023-05-14T02:50:49;100959.91;;;11.07;82.08
79463;BME280;68931;47.286;18.756;2023-05-14T02:51:20;100953.41;;;10.97;82.20
79463;BME280;68931;47.286;18.756;2023-05-14T02:51:51;100962.75;;;11.02;82.58
79463;BME280;68931;47.286;18.756;2023-05-14T02:52:23;100964.44;;;11.03;82.83